sensor_id;sensor_type;location;lat;lon;timestamp;P1;durP1;ratioP1;P2;durP2;ratioP2
39540;SDS011;25219;52.244;21.006;2023-07-29T00:01:37;5.82;;;4.95;;
39540;SDS011;25219;52.244;21.006;2023-07-29T00:04:02;8.33;;;4.83;;
39540;SDS011;25219;52.244;21.006;2023-07-29T00:06:27;8.23;;;4.85;;
39540;SDS011;25219;52.244;21.006;2023-07-29T00:08:52;11.20;;;5.03;;
39540;SDS011;25219;52.244;21.006;2023-07-29T00:11:17;6.07;;;5.20;;
39540;SDS011;25219;52.244;21.006;2023-07-29T00:13:43;7.20;;;5.20;;
39540;SDS011;25219;52.244;21.006;2023-07-29T00:16:08;7.40;;;5.10;;
39540;SDS011;25219;52.244;21.006;2023-07-29T00:18:33;11.27;;;6.10;;
39540;SDS011;25219;52.244;21.006;2023-07-29T00:20:58;11.90;;;5.10;;
39540;SDS011;25219;52.244;21.006;2023-07-29T00:23:23;10.30;;;5.10;;
39540;SDS011;25219;52.244;21.006;2023-07-29T00:25:49;10.00;;;5.32;;
39540;SDS011;25219;52.244;21.006;2023-07-29T00:28:14;10.53;;;5.30;;
39540;SDS011;25219;52.244;21.006;2023-07-29T00:30:39;7.23;;;4.83;;
39540;SDS011;25219;52.244;21.006;2023-07-29T00:33:04;9.37;;;4.87;;
39540;SDS011;25219;52.244;21.006;2023-07-29T00:35:29;7.10;;;5.60;;
39540;SDS011;25219;52.244;21.006;2023-07-29T00:37:55;7.85;;;6.18;;
39540;SDS011;25219;52.244;21.006;2023-07-29T00:40:21;8.73;;;6.03;;
39540;SDS011;25219;52.244;21.006;2023-07-29T00:42:46;10.05;;;6.40;;
39540;SDS011;25219;52.244;21.006;2023-07-29T00:45:11;10.07;;;6.17;;
39540;SDS011;25219;52.244;21.006;2023-07-29T00:47:37;9.10;;;6.03;;
39540;SDS011;25219;52.244;21.006;2023-07-29T00:50:02;10.38;;;6.43;;
39540;SDS011;25219;52.244;21.006;2023-07-29T00:52:28;10.88;;;6.95;;
39540;SDS011;25219;52.244;21.006;2023-07-29T00:54:53;11.17;;;6.77;;
39540;SDS011;25219;52.244;21.006;2023-07-29T00:57:18;11.40;;;6.33;;
39540;SDS011;25219;52.244;21.006;2023-07-29T00:59:44;9.20;;;6.38;;
39540;SDS011;25219;52.244;21.006;2023-07-29T01:02:09;9.63;;;7.37;;
39540;SDS011;25219;52.244;21.006;2023-07-29T01:04:34;10.10;;;7.15;;
39540;SDS011;25219;52.244;21.006;2023-07-29T01:07:19;13.60;;;7.22;;
39540;SDS011;25219;52.244;21.006;2023-07-29T01:09:50;12.30;;;7.28;;
39540;SDS011;25219;52.244;21.006;2023-07-29T01:14:54;14.80;;;8.07;;
39540;SDS011;25219;52.244;21.006;2023-07-29T01:17:22;12.07;;;8.20;;
39540;SDS011;25219;52.244;21.006;2023-07-29T01:19:55;11.90;;;8.50;;
39540;SDS011;25219;52.244;21.006;2023-07-29T01:22:22;13.55;;;8.20;;
39540;SDS011;25219;52.244;21.006;2023-07-29T01:24:48;14.60;;;8.85;;
39540;SDS011;25219;52.244;21.006;2023-07-29T01:27:14;13.17;;;8.10;;
39540;SDS011;25219;52.244;21.006;2023-07-29T01:29:39;15.23;;;8.27;;
39540;SDS011;25219;52.244;21.006;2023-07-29T01:32:07;12.27;;;8.47;;
39540;SDS011;25219;52.244;21.006;2023-07-29T01:34:35;16.13;;;8.68;;
39540;SDS011;25219;52.244;21.006;2023-07-29T01:37:02;13.27;;;8.50;;
39540;SDS011;25219;52.244;21.006;2023-07-29T01:39:27;11.48;;;8.23;;
39540;SDS011;25219;52.244;21.006;2023-07-29T01:41:54;18.45;;;8.73;;
39540;SDS011;25219;52.244;21.006;2023-07-29T01:44:19;12.50;;;8.65;;
39540;SDS011;25219;52.244;21.006;2023-07-29T01:46:45;13.47;;;7.37;;
39540;SDS011;25219;52.244;21.006;2023-07-29T01:49:10;13.65;;;8.68;;
39540;SDS011;25219;52.244;21.006;2023-07-29T01:51:35;12.60;;;8.13;;
39540;SDS011;25219;52.244;21.006;2023-07-29T01:54:00;14.50;;;8.20;;
39540;SDS011;25219;52.244;21.006;2023-07-29T01:56:26;12.45;;;8.65;;
39540;SDS011;25219;52.244;21.006;2023-07-29T01:58:51;12.87;;;8.63;;
39540;SDS011;25219;52.244;21.006;2023-07-29T02:01:16;12.07;;;8.73;;
39540;SDS011;25219;52.244;21.006;2023-07-29T02:03:41;11.40;;;8.73;;
39540;SDS011;25219;52.244;21.006;2023-07-29T02:06:06;17.30;;;8.65;;
39540;SDS011;25219;52.244;21.006;2023-07-29T02:08:31;11.90;;;8.10;;
39540;SDS011;25219;52.244;21.006;2023-07-29T02:10:57;9.53;;;8.10;;
39540;SDS011;25219;52.244;21.006;2023-07-29T02:13:22;11.52;;;7.95;;
39540;SDS011;25219;52.244;21.006;2023-07-29T02:15:47;12.13;;;8.13;;
39540;SDS011;25219;52.244;21.006;2023-07-29T02:18:12;11.17;;;8.07;;
39540;SDS011;25219;52.244;21.006;2023-07-29T02:20:37;10.87;;;7.67;;
39540;SDS011;25219;52.244;21.006;2023-07-29T02:23:02;10.97;;;7.37;;
39540;SDS011;25219;52.244;21.006;2023-07-29T02:25:27;10.07;;;7.75;;
39540;SDS011;25219;52.244;21.006;2023-07-29T02:27:53;11.60;;;7.97;;
39540;SDS011;25219;52.244;21.006;2023-07-29T02:30:18;15.98;;;7.90;;
39540;SDS011;25219;52.244;21.006;2023-07-29T02:32:44;10.35;;;6.75;;
39540;SDS011;25219;52.244;21.006;2023-07-29T02:35:09;9.77;;;7.30;;
39540;SDS011;25219;52.244;21.006;2023-07-29T02:37:35;12.80;;;8.88;;
39540;SDS011;25219;52.244;21.006;2023-07-29T02:40:00;11.77;;;7.07;;
39540;SDS011;25219;52.244;21.006;2023-07-29T02:42:25;10.25;;;7.40;;
39540;SDS011;25219;52.244;21.006;2023-07-29T02:44:50;7.77;;;6.73;;
39540;SDS011;25219;52.244;21.006;2023-07-29T02:47:15;11.80;;;7.77;;
39540;SDS011;25219;52.244;21.006;2023-07-29T02:49:41;11.87;;;7.93;;
39540;SDS011;25219;52.244;21.006;2023-07-29T02:52:06;9.68;;;7.18;;
39540;SDS011;25219;52.244;21.006;2023-07-29T02:54:31;10.30;;;7.50;;
39540;SDS011;25219;52.244;21.006;2023-07-29T02:56:56;10.70;;;7.10;;
39540;SDS011;25219;52.244;21.006;2023-07-29T02:59:21;8.23;;;7.32;;
39540;SDS011;25219;52.244;21.006;2023-07-29T03:01:46;11.70;;;7.83;;
39540;SDS011;25219;52.244;21.006;2023-07-29T03:04:12;15.90;;;7.63;;
39540;SDS011;25219;52.244;21.006;2023-07-29T03:06:40;10.43;;;7.70;;
39540;SDS011;25219;52.244;21.006;2023-07-29T03:09:05;9.70;;;7.17;;
39540;SDS011;25219;52.244;21.006;2023-07-29T03:11:30;16.63;;;7.77;;
39540;SDS011;25219;52.244;21.006;2023-07-29T03:13:56;12.00;;;8.35;;
39540;SDS011;25219;52.244;21.006;2023-07-29T03:16:22;12.57;;;8.27;;
39540;SDS011;25219;52.244;21.006;2023-07-29T03:18:48;12.03;;;8.27;;
39540;SDS011;25219;52.244;21.006;2023-07-29T03:21:13;12.20;;;7.78;;
39540;SDS011;25219;52.244;21.006;2023-07-29T03:23:38;10.93;;;8.07;;
39540;SDS011;25219;52.244;21.006;2023-07-29T03:26:03;10.57;;;8.10;;
39540;SDS011;25219;52.244;21.006;2023-07-29T03:28:41;10.95;;;7.88;;
39540;SDS011;25219;52.244;21.006;2023-07-29T03:31:06;10.77;;;7.93;;
39540;SDS011;25219;52.244;21.006;2023-07-29T03:33:32;13.45;;;8.38;;
39540;SDS011;25219;52.244;21.006;2023-07-29T03:35:57;12.03;;;8.03;;
39540;SDS011;25219;52.244;21.006;2023-07-29T03:38:22;13.33;;;8.30;;
39540;SDS011;25219;52.244;21.006;2023-07-29T03:40:47;9.85;;;7.60;;
39540;SDS011;25219;52.244;21.006;2023-07-29T03:43:13;9.93;;;7.97;;
39540;SDS011;25219;52.244;21.006;2023-07-29T03:45:38;11.90;;;8.70;;
39540;SDS011;25219;52.244;21.006;2023-07-29T03:48:04;13.27;;;8.23;;
39540;SDS011;25219;52.244;21.006;2023-07-29T03:50:29;11.65;;;8.82;;
39540;SDS011;25219;52.244;21.006;2023-07-29T03:52:55;15.02;;;8.70;;
39540;SDS011;25219;52.244;21.006;2023-07-29T03:55:20;10.60;;;7.90;;
39540;SDS011;25219;52.244;21.006;2023-07-29T03:57:45;16.77;;;8.33;;
39540;SDS011;25219;52.244;21.006;2023-07-29T04:00:11;11.02;;;8.68;;
39540;SDS011;25219;52.244;21.006;2023-07-29T04:02:36;14.93;;;8.77;;
39540;SDS011;25219;52.244;21.006;2023-07-29T04:05:02;13.90;;;8.48;;
39540;SDS011;25219;52.244;21.006;2023-07-29T04:07:28;13.88;;;8.95;;
39540;SDS011;25219;52.244;21.006;2023-07-29T04:09:53;11.93;;;8.20;;
39540;SDS011;25219;52.244;21.006;2023-07-29T04:12:18;14.83;;;8.50;;
39540;SDS011;25219;52.244;21.006;2023-07-29T04:14:46;13.32;;;9.02;;
39540;SDS011;25219;52.244;21.006;2023-07-29T04:17:11;13.73;;;8.83;;
39540;SDS011;25219;52.244;21.006;2023-07-29T04:19:36;13.60;;;9.47;;
39540;SDS011;25219;52.244;21.006;2023-07-29T04:22:01;11.73;;;9.27;;
39540;SDS011;25219;52.244;21.006;2023-07-29T04:24:27;13.93;;;8.98;;
39540;SDS011;25219;52.244;21.006;2023-07-29T04:26:52;11.80;;;8.60;;
39540;SDS011;25219;52.244;21.006;2023-07-29T04:29:17;10.77;;;8.45;;
39540;SDS011;25219;52.244;21.006;2023-07-29T04:31:42;12.43;;;8.10;;
39540;SDS011;25219;52.244;21.006;2023-07-29T04:34:08;11.53;;;8.47;;
39540;SDS011;25219;52.244;21.006;2023-07-29T04:36:33;11.43;;;8.50;;
39540;SDS011;25219;52.244;21.006;2023-07-29T04:38:58;10.93;;;8.40;;
39540;SDS011;25219;52.244;21.006;2023-07-29T04:41:23;10.83;;;8.43;;
39540;SDS011;25219;52.244;21.006;2023-07-29T04:43:48;12.25;;;9.15;;
39540;SDS011;25219;52.244;21.006;2023-07-29T04:46:14;16.58;;;9.35;;
39540;SDS011;25219;52.244;21.006;2023-07-29T04:48:39;14.23;;;9.67;;
39540;SDS011;25219;52.244;21.006;2023-07-29T04:51:04;12.57;;;9.27;;
39540;SDS011;25219;52.244;21.006;2023-07-29T04:53:30;10.32;;;9.02;;
39540;SDS011;25219;52.244;21.006;2023-07-29T04:55:55;13.25;;;9.10;;
39540;SDS011;25219;52.244;21.006;2023-07-29T04:58:20;13.88;;;9.35;;
39540;SDS011;25219;52.244;21.006;2023-07-29T05:00:48;14.00;;;9.50;;
39540;SDS011;25219;52.244;21.006;2023-07-29T05:03:13;13.85;;;10.23;;
39540;SDS011;25219;52.244;21.006;2023-07-29T05:05:38;12.63;;;9.67;;
39540;SDS011;25219;52.244;21.006;2023-07-29T05:08:03;15.63;;;9.57;;
39540;SDS011;25219;52.244;21.006;2023-07-29T05:10:29;16.00;;;9.93;;
39540;SDS011;25219;52.244;21.006;2023-07-29T05:12:54;12.63;;;9.70;;
39540;SDS011;25219;52.244;21.006;2023-07-29T05:15:19;12.95;;;9.77;;
39540;SDS011;25219;52.244;21.006;2023-07-29T05:17:44;12.27;;;9.63;;
39540;SDS011;25219;52.244;21.006;2023-07-29T05:20:10;13.20;;;10.37;;
39540;SDS011;25219;52.244;21.006;2023-07-29T05:22:35;13.97;;;10.37;;
39540;SDS011;25219;52.244;21.006;2023-07-29T05:25:00;13.65;;;10.80;;
39540;SDS011;25219;52.244;21.006;2023-07-29T05:27:25;14.93;;;11.07;;
39540;SDS011;25219;52.244;21.006;2023-07-29T05:29:50;14.93;;;10.75;;
39540;SDS011;25219;52.244;21.006;2023-07-29T05:32:15;15.03;;;10.57;;
39540;SDS011;25219;52.244;21.006;2023-07-29T05:34:41;12.50;;;10.63;;
39540;SDS011;25219;52.244;21.006;2023-07-29T05:37:06;18.67;;;12.00;;
39540;SDS011;25219;52.244;21.006;2023-07-29T05:39:31;17.70;;;13.57;;
39540;SDS011;25219;52.244;21.006;2023-07-29T05:41:57;20.73;;;17.23;;
39540;SDS011;25219;52.244;21.006;2023-07-29T05:44:22;23.40;;;17.20;;
39540;SDS011;25219;52.244;21.006;2023-07-29T05:46:47;20.33;;;17.33;;
39540;SDS011;25219;52.244;21.006;2023-07-29T05:49:12;20.85;;;16.88;;
39540;SDS011;25219;52.244;21.006;2023-07-29T05:51:38;19.20;;;15.80;;
39540;SDS011;25219;52.244;21.006;2023-07-29T05:54:03;15.48;;;13.52;;
39540;SDS011;25219;52.244;21.006;2023-07-29T05:56:28;16.37;;;13.40;;
39540;SDS011;25219;52.244;21.006;2023-07-29T05:58:54;17.52;;;14.25;;
39540;SDS011;25219;52.244;21.006;2023-07-29T06:01:20;17.43;;;14.67;;
39540;SDS011;25219;52.244;21.006;2023-07-29T06:03:46;19.17;;;13.63;;
39540;SDS011;25219;52.244;21.006;2023-07-29T06:06:11;15.55;;;12.43;;
39540;SDS011;25219;52.244;21.006;2023-07-29T06:08:37;15.85;;;13.00;;
39540;SDS011;25219;52.244;21.006;2023-07-29T06:11:02;15.73;;;13.43;;
39540;SDS011;25219;52.244;21.006;2023-07-29T06:13:27;17.53;;;13.63;;
39540;SDS011;25219;52.244;21.006;2023-07-29T06:15:52;17.90;;;13.80;;
39540;SDS011;25219;52.244;21.006;2023-07-29T06:18:17;18.67;;;14.23;;
39540;SDS011;25219;52.244;21.006;2023-07-29T06:20:42;15.50;;;13.87;;
39540;SDS011;25219;52.244;21.006;2023-07-29T06:23:08;16.63;;;12.70;;
39540;SDS011;25219;52.244;21.006;2023-07-29T06:25:33;14.10;;;12.30;;
39540;SDS011;25219;52.244;21.006;2023-07-29T06:27:58;14.57;;;12.13;;
39540;SDS011;25219;52.244;21.006;2023-07-29T06:30:23;13.70;;;11.97;;
39540;SDS011;25219;52.244;21.006;2023-07-29T06:32:49;14.88;;;12.15;;
39540;SDS011;25219;52.244;21.006;2023-07-29T06:35:14;16.52;;;12.82;;
39540;SDS011;25219;52.244;21.006;2023-07-29T06:37:39;14.90;;;12.17;;
39540;SDS011;25219;52.244;21.006;2023-07-29T06:40:04;14.25;;;12.05;;
39540;SDS011;25219;52.244;21.006;2023-07-29T06:42:30;16.17;;;11.88;;
39540;SDS011;25219;52.244;21.006;2023-07-29T06:44:55;13.90;;;11.93;;
39540;SDS011;25219;52.244;21.006;2023-07-29T06:47:20;13.90;;;11.33;;
39540;SDS011;25219;52.244;21.006;2023-07-29T06:49:46;14.43;;;11.70;;
39540;SDS011;25219;52.244;21.006;2023-07-29T06:52:11;12.17;;;10.63;;
39540;SDS011;25219;52.244;21.006;2023-07-29T06:54:36;16.65;;;10.00;;
39540;SDS011;25219;52.244;21.006;2023-07-29T06:57:01;11.77;;;9.97;;
39540;SDS011;25219;52.244;21.006;2023-07-29T06:59:26;11.90;;;9.87;;
39540;SDS011;25219;52.244;21.006;2023-07-29T07:01:52;11.68;;;9.18;;
39540;SDS011;25219;52.244;21.006;2023-07-29T07:04:17;12.80;;;10.10;;
39540;SDS011;25219;52.244;21.006;2023-07-29T07:06:42;11.80;;;10.07;;
39540;SDS011;25219;52.244;21.006;2023-07-29T07:09:07;11.47;;;9.57;;
39540;SDS011;25219;52.244;21.006;2023-07-29T07:11:32;11.87;;;9.63;;
39540;SDS011;25219;52.244;21.006;2023-07-29T07:13:57;12.27;;;9.13;;
39540;SDS011;25219;52.244;21.006;2023-07-29T07:16:22;10.68;;;9.35;;
39540;SDS011;25219;52.244;21.006;2023-07-29T07:18:48;10.33;;;8.00;;
39540;SDS011;25219;52.244;21.006;2023-07-29T07:21:13;12.17;;;8.67;;
39540;SDS011;25219;52.244;21.006;2023-07-29T07:23:38;11.43;;;8.87;;
39540;SDS011;25219;52.244;21.006;2023-07-29T07:26:04;10.40;;;8.45;;
39540;SDS011;25219;52.244;21.006;2023-07-29T07:28:29;9.70;;;8.20;;
39540;SDS011;25219;52.244;21.006;2023-07-29T07:30:54;12.10;;;8.30;;
39540;SDS011;25219;52.244;21.006;2023-07-29T07:33:20;15.77;;;8.38;;
39540;SDS011;25219;52.244;21.006;2023-07-29T07:35:46;13.37;;;8.10;;
39540;SDS011;25219;52.244;21.006;2023-07-29T07:38:11;10.63;;;8.37;;
39540;SDS011;25219;52.244;21.006;2023-07-29T07:40:36;10.50;;;7.70;;
39540;SDS011;25219;52.244;21.006;2023-07-29T07:43:01;8.00;;;6.90;;
39540;SDS011;25219;52.244;21.006;2023-07-29T07:45:26;8.98;;;7.93;;
39540;SDS011;25219;52.244;21.006;2023-07-29T07:47:52;9.93;;;7.57;;
39540;SDS011;25219;52.244;21.006;2023-07-29T07:50:18;9.55;;;7.60;;
39540;SDS011;25219;52.244;21.006;2023-07-29T07:52:43;8.20;;;6.90;;
39540;SDS011;25219;52.244;21.006;2023-07-29T07:55:09;6.60;;;5.83;;
39540;SDS011;25219;52.244;21.006;2023-07-29T07:57:34;7.23;;;6.00;;
39540;SDS011;25219;52.244;21.006;2023-07-29T07:59:59;7.28;;;6.25;;
39540;SDS011;25219;52.244;21.006;2023-07-29T08:02:24;7.40;;;5.33;;
39540;SDS011;25219;52.244;21.006;2023-07-29T08:04:49;8.50;;;5.57;;
39540;SDS011;25219;52.244;21.006;2023-07-29T08:07:14;6.93;;;6.22;;
39540;SDS011;25219;52.244;21.006;2023-07-29T08:09:39;6.17;;;5.57;;
39540;SDS011;25219;52.244;21.006;2023-07-29T08:12:05;5.50;;;5.00;;
39540;SDS011;25219;52.244;21.006;2023-07-29T08:14:30;11.55;;;7.13;;
39540;SDS011;25219;52.244;21.006;2023-07-29T08:16:55;7.00;;;5.50;;
39540;SDS011;25219;52.244;21.006;2023-07-29T08:19:21;6.17;;;4.90;;
39540;SDS011;25219;52.244;21.006;2023-07-29T08:21:46;6.25;;;4.40;;
39540;SDS011;25219;52.244;21.006;2023-07-29T08:24:11;6.83;;;5.07;;
39540;SDS011;25219;52.244;21.006;2023-07-29T08:26:36;6.03;;;4.43;;
39540;SDS011;25219;52.244;21.006;2023-07-29T08:29:01;4.83;;;3.80;;
39540;SDS011;25219;52.244;21.006;2023-07-29T08:31:27;4.57;;;3.70;;
39540;SDS011;25219;52.244;21.006;2023-07-29T08:33:52;6.33;;;4.60;;
39540;SDS011;25219;52.244;21.006;2023-07-29T08:36:17;6.53;;;3.97;;
39540;SDS011;25219;52.244;21.006;2023-07-29T08:38:42;3.97;;;3.60;;
39540;SDS011;25219;52.244;21.006;2023-07-29T08:41:13;4.18;;;3.78;;
39540;SDS011;25219;52.244;21.006;2023-07-29T08:43:39;3.17;;;2.83;;
39540;SDS011;25219;52.244;21.006;2023-07-29T08:46:06;3.85;;;3.40;;
39540;SDS011;25219;52.244;21.006;2023-07-29T08:48:41;13.95;;;7.30;;
39540;SDS011;25219;52.244;21.006;2023-07-29T08:51:07;3.92;;;2.90;;
39540;SDS011;25219;52.244;21.006;2023-07-29T08:53:33;4.15;;;3.28;;
39540;SDS011;25219;52.244;21.006;2023-07-29T08:55:58;2.30;;;2.10;;
39540;SDS011;25219;52.244;21.006;2023-07-29T08:58:23;2.83;;;1.90;;
39540;SDS011;25219;52.244;21.006;2023-07-29T09:00:49;2.75;;;2.25;;
39540;SDS011;25219;52.244;21.006;2023-07-29T09:03:15;2.42;;;2.22;;
39540;SDS011;25219;52.244;21.006;2023-07-29T09:05:40;2.70;;;2.17;;
39540;SDS011;25219;52.244;21.006;2023-07-29T09:08:05;3.45;;;2.33;;
39540;SDS011;25219;52.244;21.006;2023-07-29T09:10:34;2.25;;;2.00;;
39540;SDS011;25219;52.244;21.006;2023-07-29T09:12:59;8.48;;;3.22;;
39540;SDS011;25219;52.244;21.006;2023-07-29T09:15:27;2.40;;;2.20;;
39540;SDS011;25219;52.244;21.006;2023-07-29T09:17:53;2.88;;;2.40;;
39540;SDS011;25219;52.244;21.006;2023-07-29T09:20:23;2.63;;;2.33;;
39540;SDS011;25219;52.244;21.006;2023-07-29T09:22:48;2.25;;;2.10;;
39540;SDS011;25219;52.244;21.006;2023-07-29T09:25:13;5.80;;;4.20;;
39540;SDS011;25219;52.244;21.006;2023-07-29T09:27:41;2.40;;;1.67;;
39540;SDS011;25219;52.244;21.006;2023-07-29T09:30:06;1.70;;;1.60;;
39540;SDS011;25219;52.244;21.006;2023-07-29T09:32:32;1.70;;;1.58;;
39540;SDS011;25219;52.244;21.006;2023-07-29T09:34:57;2.83;;;1.60;;
39540;SDS011;25219;52.244;21.006;2023-07-29T09:37:22;4.73;;;2.00;;
39540;SDS011;25219;52.244;21.006;2023-07-29T09:39:48;14.82;;;2.13;;
39540;SDS011;25219;52.244;21.006;2023-07-29T09:42:20;1.80;;;1.70;;
39540;SDS011;25219;52.244;21.006;2023-07-29T09:44:45;5.72;;;1.70;;
39540;SDS011;25219;52.244;21.006;2023-07-29T09:47:18;2.08;;;1.85;;
39540;SDS011;25219;52.244;21.006;2023-07-29T09:49:43;4.60;;;1.80;;
39540;SDS011;25219;52.244;21.006;2023-07-29T09:52:09;4.30;;;2.10;;
39540;SDS011;25219;52.244;21.006;2023-07-29T09:54:36;3.30;;;1.73;;
39540;SDS011;25219;52.244;21.006;2023-07-29T09:57:01;1.95;;;1.75;;
39540;SDS011;25219;52.244;21.006;2023-07-29T09:59:27;11.07;;;2.00;;
39540;SDS011;25219;52.244;21.006;2023-07-29T10:01:52;3.97;;;2.20;;
39540;SDS011;25219;52.244;21.006;2023-07-29T10:04:17;5.15;;;4.00;;
39540;SDS011;25219;52.244;21.006;2023-07-29T10:06:43;3.10;;;1.95;;
39540;SDS011;25219;52.244;21.006;2023-07-29T10:09:08;2.10;;;1.33;;
39540;SDS011;25219;52.244;21.006;2023-07-29T10:11:35;3.45;;;1.85;;
39540;SDS011;25219;52.244;21.006;2023-07-29T10:14:01;5.78;;;2.05;;
39540;SDS011;25219;52.244;21.006;2023-07-29T10:16:26;5.53;;;1.63;;
39540;SDS011;25219;52.244;21.006;2023-07-29T10:18:52;4.45;;;1.70;;
39540;SDS011;25219;52.244;21.006;2023-07-29T10:21:18;3.13;;;1.70;;
39540;SDS011;25219;52.244;21.006;2023-07-29T10:23:43;2.37;;;1.63;;
39540;SDS011;25219;52.244;21.006;2023-07-29T10:26:10;2.67;;;1.73;;
39540;SDS011;25219;52.244;21.006;2023-07-29T10:28:38;2.70;;;1.77;;
39540;SDS011;25219;52.244;21.006;2023-07-29T10:31:04;2.95;;;2.17;;
39540;SDS011;25219;52.244;21.006;2023-07-29T10:33:29;2.10;;;1.90;;
39540;SDS011;25219;52.244;21.006;2023-07-29T10:35:55;4.07;;;3.35;;
39540;SDS011;25219;52.244;21.006;2023-07-29T10:38:21;2.17;;;1.97;;
39540;SDS011;25219;52.244;21.006;2023-07-29T10:40:49;3.08;;;2.10;;
39540;SDS011;25219;52.244;21.006;2023-07-29T10:43:18;2.10;;;1.75;;
39540;SDS011;25219;52.244;21.006;2023-07-29T10:45:44;1.85;;;1.60;;
39540;SDS011;25219;52.244;21.006;2023-07-29T10:48:13;2.45;;;1.80;;
39540;SDS011;25219;52.244;21.006;2023-07-29T10:50:38;2.78;;;1.77;;
39540;SDS011;25219;52.244;21.006;2023-07-29T10:53:03;2.00;;;1.80;;
39540;SDS011;25219;52.244;21.006;2023-07-29T10:55:30;2.47;;;1.90;;
39540;SDS011;25219;52.244;21.006;2023-07-29T10:58:11;2.85;;;1.70;;
39540;SDS011;25219;52.244;21.006;2023-07-29T11:00:37;2.28;;;1.67;;
39540;SDS011;25219;52.244;21.006;2023-07-29T11:03:04;3.42;;;2.88;;
39540;SDS011;25219;52.244;21.006;2023-07-29T11:05:43;1.98;;;1.60;;
39540;SDS011;25219;52.244;21.006;2023-07-29T11:08:15;2.60;;;1.63;;
39540;SDS011;25219;52.244;21.006;2023-07-29T11:10:44;3.13;;;1.70;;
39540;SDS011;25219;52.244;21.006;2023-07-29T11:13:09;1.58;;;1.40;;
39540;SDS011;25219;52.244;21.006;2023-07-29T11:15:36;3.83;;;1.90;;
39540;SDS011;25219;52.244;21.006;2023-07-29T11:18:03;2.30;;;1.70;;
39540;SDS011;25219;52.244;21.006;2023-07-29T11:20:30;1.77;;;1.48;;
39540;SDS011;25219;52.244;21.006;2023-07-29T11:22:56;2.20;;;1.35;;
39540;SDS011;25219;52.244;21.006;2023-07-29T11:25:23;1.67;;;1.48;;
39540;SDS011;25219;52.244;21.006;2023-07-29T11:27:49;3.22;;;1.60;;
39540;SDS011;25219;52.244;21.006;2023-07-29T11:30:14;2.30;;;1.80;;
39540;SDS011;25219;52.244;21.006;2023-07-29T11:32:41;2.13;;;1.35;;
39540;SDS011;25219;52.244;21.006;2023-07-29T11:35:07;2.05;;;1.75;;
39540;SDS011;25219;52.244;21.006;2023-07-29T11:37:33;5.15;;;1.55;;
39540;SDS011;25219;52.244;21.006;2023-07-29T11:39:58;2.25;;;1.50;;
39540;SDS011;25219;52.244;21.006;2023-07-29T11:42:24;1.87;;;1.50;;
39540;SDS011;25219;52.244;21.006;2023-07-29T11:44:49;1.73;;;1.30;;
39540;SDS011;25219;52.244;21.006;2023-07-29T11:47:14;2.20;;;2.00;;
39540;SDS011;25219;52.244;21.006;2023-07-29T11:49:40;2.07;;;1.37;;
39540;SDS011;25219;52.244;21.006;2023-07-29T11:52:06;2.58;;;1.60;;
39540;SDS011;25219;52.244;21.006;2023-07-29T11:54:31;3.35;;;1.77;;
39540;SDS011;25219;52.244;21.006;2023-07-29T11:56:56;3.13;;;1.90;;
39540;SDS011;25219;52.244;21.006;2023-07-29T11:59:21;5.80;;;4.33;;
39540;SDS011;25219;52.244;21.006;2023-07-29T12:01:47;1.63;;;1.53;;
39540;SDS011;25219;52.244;21.006;2023-07-29T12:04:12;1.92;;;1.73;;
39540;SDS011;25219;52.244;21.006;2023-07-29T12:06:37;2.60;;;2.23;;
39540;SDS011;25219;52.244;21.006;2023-07-29T12:09:03;3.53;;;1.88;;
39540;SDS011;25219;52.244;21.006;2023-07-29T12:11:28;1.63;;;1.53;;
39540;SDS011;25219;52.244;21.006;2023-07-29T12:13:53;3.60;;;1.80;;
39540;SDS011;25219;52.244;21.006;2023-07-29T12:16:19;1.65;;;1.55;;
39540;SDS011;25219;52.244;21.006;2023-07-29T12:18:44;2.23;;;1.60;;
39540;SDS011;25219;52.244;21.006;2023-07-29T12:21:09;1.40;;;1.30;;
39540;SDS011;25219;52.244;21.006;2023-07-29T12:23:34;3.33;;;1.67;;
39540;SDS011;25219;52.244;21.006;2023-07-29T12:26:00;4.50;;;1.42;;
39540;SDS011;25219;52.244;21.006;2023-07-29T12:28:26;1.58;;;1.33;;
39540;SDS011;25219;52.244;21.006;2023-07-29T12:30:54;3.20;;;1.60;;
39540;SDS011;25219;52.244;21.006;2023-07-29T12:33:32;3.58;;;1.67;;
39540;SDS011;25219;52.244;21.006;2023-07-29T12:35:58;1.95;;;1.60;;
39540;SDS011;25219;52.244;21.006;2023-07-29T12:38:25;1.90;;;1.33;;
39540;SDS011;25219;52.244;21.006;2023-07-29T12:40:50;1.40;;;1.30;;
39540;SDS011;25219;52.244;21.006;2023-07-29T12:43:15;2.97;;;1.97;;
39540;SDS011;25219;52.244;21.006;2023-07-29T12:45:40;1.70;;;1.60;;
39540;SDS011;25219;52.244;21.006;2023-07-29T12:48:07;1.67;;;1.30;;
39540;SDS011;25219;52.244;21.006;2023-07-29T12:50:32;2.75;;;1.70;;
39540;SDS011;25219;52.244;21.006;2023-07-29T12:52:57;1.50;;;1.40;;
39540;SDS011;25219;52.244;21.006;2023-07-29T12:55:23;1.88;;;1.65;;
39540;SDS011;25219;52.244;21.006;2023-07-29T12:57:48;2.87;;;1.80;;
39540;SDS011;25219;52.244;21.006;2023-07-29T13:00:13;2.13;;;1.75;;
39540;SDS011;25219;52.244;21.006;2023-07-29T13:02:38;2.00;;;1.70;;
39540;SDS011;25219;52.244;21.006;2023-07-29T13:05:03;2.20;;;1.87;;
39540;SDS011;25219;52.244;21.006;2023-07-29T13:07:29;1.95;;;1.75;;
39540;SDS011;25219;52.244;21.006;2023-07-29T13:09:54;1.67;;;1.55;;
39540;SDS011;25219;52.244;21.006;2023-07-29T13:12:19;2.50;;;1.70;;
39540;SDS011;25219;52.244;21.006;2023-07-29T13:14:45;2.22;;;1.52;;
39540;SDS011;25219;52.244;21.006;2023-07-29T13:17:10;3.22;;;1.80;;
39540;SDS011;25219;52.244;21.006;2023-07-29T13:19:35;2.33;;;1.67;;
39540;SDS011;25219;52.244;21.006;2023-07-29T13:22:00;2.07;;;1.70;;
39540;SDS011;25219;52.244;21.006;2023-07-29T13:24:27;1.77;;;1.67;;
39540;SDS011;25219;52.244;21.006;2023-07-29T13:26:52;2.70;;;1.88;;
39540;SDS011;25219;52.244;21.006;2023-07-29T13:29:17;1.60;;;1.50;;
39540;SDS011;25219;52.244;21.006;2023-07-29T13:31:42;4.00;;;2.07;;
39540;SDS011;25219;52.244;21.006;2023-07-29T13:34:07;1.65;;;1.55;;
39540;SDS011;25219;52.244;21.006;2023-07-29T13:36:32;1.98;;;1.63;;
39540;SDS011;25219;52.244;21.006;2023-07-29T13:38:58;3.70;;;1.87;;
39540;SDS011;25219;52.244;21.006;2023-07-29T13:41:23;3.10;;;1.88;;
39540;SDS011;25219;52.244;21.006;2023-07-29T13:43:48;1.73;;;1.60;;
39540;SDS011;25219;52.244;21.006;2023-07-29T13:46:13;1.87;;;1.53;;
39540;SDS011;25219;52.244;21.006;2023-07-29T13:48:38;1.53;;;1.43;;
39540;SDS011;25219;52.244;21.006;2023-07-29T13:51:03;1.60;;;1.50;;
39540;SDS011;25219;52.244;21.006;2023-07-29T13:53:29;1.90;;;1.60;;
39540;SDS011;25219;52.244;21.006;2023-07-29T13:55:54;1.80;;;1.70;;
39540;SDS011;25219;52.244;21.006;2023-07-29T13:58:19;2.77;;;2.03;;
39540;SDS011;25219;52.244;21.006;2023-07-29T14:00:44;2.97;;;1.70;;
39540;SDS011;25219;52.244;21.006;2023-07-29T14:03:10;2.08;;;1.80;;
39540;SDS011;25219;52.244;21.006;2023-07-29T14:05:35;1.87;;;1.67;;
39540;SDS011;25219;52.244;21.006;2023-07-29T14:08:00;4.00;;;2.00;;
39540;SDS011;25219;52.244;21.006;2023-07-29T14:10:25;3.13;;;1.57;;
39540;SDS011;25219;52.244;21.006;2023-07-29T14:12:51;1.83;;;1.63;;
39540;SDS011;25219;52.244;21.006;2023-07-29T14:15:16;2.05;;;1.75;;
39540;SDS011;25219;52.244;21.006;2023-07-29T14:17:42;4.60;;;2.20;;
39540;SDS011;25219;52.244;21.006;2023-07-29T14:20:07;2.63;;;1.57;;